Time;durP1;ratioP1;P1;durP2;ratioP2;P2;SDS_P1;SDS_P2;PMS_P1;PMS_P2;Temp;Humidity;BMP_temperature;BMP_pressure;BME280_temperature;BME280_humidity;BME280_pressure;Samples;Min_cycle;Max_cycle;Signal;HPM_P1;HPM_P2
2021/03/18 09:12:33;;;;;;;;;;;;;;;;;;1569669;27;82855;-90
2021/03/18 09:13:21;;;;;;;;;;;;;;;;;;1567266;27;84933;-89
2021/03/18 09:14:06;;;;;;;;;;;;;;;;;;1555663;28;85297;-87
2021/03/18 09:14:51;;;;;;;;;;;;;;;;;;1552045;28;86481;-91
2021/03/18 09:15:37;;;;;;;;;;;;;;;;;;1549303;28;83722;-89
2021/03/18 09:16:22;;;;;;;;;;;;;;;;;;1553523;28;86164;-88
2021/03/18 09:17:09;;;;;;;;;;;;;;;;;;1557638;28;85230;-89
2021/03/18 09:17:54;;;;;;;;;;;;;;;;;;1556172;28;84454;-89
2021/03/18 09:18:40;;;;;;;;;;;;;;;;;;1555914;28;85070;-89
2021/03/18 09:19:28;;;;;;;;;;;;;;;;;;1557964;28;85598;-88
2021/03/18 09:20:15;;;;;;;;;;;;;;;;;;1554352;28;85248;-89
2021/03/18 09:21:02;;;;;;;;;;;;;;;;;;1554130;28;83400;-89
2021/03/18 09:21:56;;;;;;;;;;;;;;;;;;1552758;28;85041;-87
2021/03/18 09:22:41;;;;;;;;;;;;;;;;;;1555958;28;84467;-88
2021/03/18 09:23:27;;;;;;;;;;;;;;;;;;1555831;28;84814;-90
2021/03/18 09:24:12;;;;;;;;;;;;;;;;;;1557858;28;84829;-89
2021/03/18 09:24:59;;;;;;;;;;;;;;;;;;1555951;28;83828;-89
2021/03/18 09:25:44;;;;;;;;;;;;;;;;;;1555779;28;84902;-90
2021/03/18 09:26:29;;;;;;;;;;;;;;;;;;1551877;28;83734;-90
2021/03/18 09:27:15;;;;;;;;;;;;;;;;;;1555913;28;85089;-90
2021/03/18 09:28:02;;;;;;;;;;;;;;;;;;1555918;28;85001;-89
2021/03/18 09:28:49;;;;;;;;;;;;;;;;;;1558046;28;84566;-89
2021/03/18 09:29:34;;;;;;;;;;;;;;;;;;1555853;28;83565;-90
2021/03/18 09:30:20;;;;;;;;;;;;;;;;;;1555821;28;85277;-89
2021/03/18 09:31:05;;;;;;;;;;;;;;;;;;1551455;28;86284;-88
2021/03/18 09:31:50;;;;;;;;;;;;;;;;;;1555600;28;86577;-86
2021/03/18 09:32:35;;;;;;;;;;;;;;;;;;1559446;28;84910;-91
2021/03/18 09:33:20;;;;;;;;;;;;;;;;;;1564022;27;83489;-90
2021/03/18 09:34:06;;;;;;;;;;;;;;;;;;1561756;28;83756;-90
2021/03/18 09:34:51;;;;;;;;;;;;;;;;;;1562336;28;85725;-88
2021/03/18 09:35:36;;;;;;;;;;;;;;;;;;1564302;27;85006;-89
2021/03/18 09:36:21;;;;;;;;;;;;;;;;;;1560484;28;85327;-88
2021/03/18 09:37:06;;;;;;;;;;;;;;;;;;1562567;28;85349;-90
2021/03/18 09:37:51;;;;;;;;;;;;;;;;;;1558061;28;85407;-89
2021/03/18 09:38:36;;;;;;;;;;;;;;;;;;1561104;28;85347;-91
2021/03/18 09:39:22;;;;;;;;;;;;;;;;;;1556399;28;85617;-89
2021/03/18 09:40:07;;;;;;;;;;;;;;;;;;1564837;27;86370;-88
2021/03/18 09:40:52;;;;;;;;;;;;;;;;;;1562291;28;86753;-89
2021/03/18 09:41:37;;;;;;;;;;;;;;;;;;1560333;28;85093;-89
2021/03/18 09:42:22;;;;;;;;;;;;;;;;;;1564391;27;85371;-86
2021/03/18 09:43:11;;;;;;;;;;;;;;;;;;1562415;28;86397;-90
2021/03/18 09:44:01;;;;;;;;;;;;;;;;;;1560112;28;84216;-88
2021/03/18 09:44:46;;;;;;;;;;;;;;;;;;1565309;27;85395;-90
2021/03/18 09:45:40;;;;;;;;;;;;;;;;;;1561994;28;85486;-90
2021/03/18 09:46:25;;;;;;;;;;;;;;;;;;1558873;28;84488;-89
2021/03/18 09:47:10;;;;;;;;;;;;;;;;;;1565689;27;85353;-91
2021/03/18 09:48:04;;;;;;;;;;;;;;;;;;1564944;28;85312;-91
2021/03/18 09:48:49;;;;;;;;;;;;;;;;;;1560105;28;85376;-88
2021/03/18 09:49:34;;;;;;;;;;;;;;;;;;1565515;27;84151;-88
2021/03/18 09:50:27;;;;;;;;;;;;;;;;;;1562450;27;84091;-90
2021/03/18 09:51:12;;;;;;;;;;;;;;;;;;1558955;28;85608;-89
2021/03/18 09:51:59;;;;;;;;;;;;;;;;;;1561854;28;86995;-89
2021/03/18 09:52:45;;;;;;;;;;;;;;;;;;1564211;27;84460;-87
2021/03/18 09:53:30;;;;;;;;;;;;;;;;;;1559681;28;86471;-88
2021/03/18 09:54:18;;;;;;;;;;;;;;;;;;1560675;28;84259;-87
2021/03/18 09:55:03;;;;;;;;;;;;;;;;;;1559105;28;83008;-88
2021/03/18 09:55:48;;;;;;;;;;;;;;;;;;1555997;28;87101;-89
2021/03/18 09:56:33;;;;;;;;;;;;;;;;;;1558129;27;83420;-87
2021/03/18 09:57:18;;;;;;;;;;;;;;;;;;1555427;28;83500;-87
2021/03/18 09:58:03;;;;;;;;;;;;;;;;;;1555332;28;83676;-88
2021/03/18 09:58:48;;;;;;;;;;;;;;;;;;1551333;28;83407;-89
2021/03/18 09:59:34;;;;;;;;;;;;;;;;;;1555362;28;83287;-85
2021/03/18 10:00:19;;;;;;;;;;;;;;;;;;1555455;28;83463;-89
2021/03/18 10:01:04;;;;;;;;;;;;;;;;;;1550962;28;83425;-87
2021/03/18 10:01:49;;;;;;;;;;;;;;;;;;1559206;28;83199;-88
2021/03/18 10:02:34;;;;;;;;;;;;;;;;;;1557603;28;83517;-88
2021/03/18 10:03:20;;;;;;;;;;;;;;;;;;1553540;28;83534;-87
2021/03/18 10:04:05;;;;;;;;;;;;;;;;;;1549136;28;83043;-87
2021/03/18 10:04:50;;;;;;;;;;;;;;;;;;1551535;28;82979;-88
2021/03/18 10:05:35;;;;;;;;;;;;;;;;;;1555684;28;83354;-88
2021/03/18 10:06:21;;;;;;;;;;;;;;;;;;1555383;28;83366;-87
2021/03/18 10:07:06;;;;;;;;;;;;;;;;;;1555515;28;83410;-87
2021/03/18 10:07:51;;;;;;;;;;;;;;;;;;1553472;28;83502;-88
2021/03/18 10:08:36;;;;;;;;;;;;;;;;;;1557581;28;83486;-89
2021/03/18 10:09:22;;;;;;;;;;;;;;;;;;1555490;28;83248;-90
2021/03/18 10:10:07;;;;;;;;;;;;;;;;;;1553532;28;83136;-89
2021/03/18 10:10:52;;;;;;;;;;;;;;;;;;1557625;28;83452;-89
2021/03/18 10:11:37;;;;;;;;;;;;;;;;;;1555517;28;83382;-88
2021/03/18 10:12:22;;;;;;;;;;;;;;;;;;1553431;28;83077;-87
2021/03/18 10:13:07;;;;;;;;;;;;;;;;;;1557457;28;83550;-88
2021/03/18 10:13:53;;;;;;;;;;;;;;;;;;1558283;28;83427;-87
2021/03/18 10:14:38;;;;;;;;;;;;;;;;;;1559695;28;83311;-87
2021/03/18 10:15:23;;;;;;;;;;;;;;;;;;1563659;27;83434;-88
2021/03/18 10:16:08;;;;;;;;;;;;;;;;;;1567546;27;83612;-88
2021/03/18 10:16:53;;;;;;;;;;;;;;;;;;1559665;28;83141;-88
2021/03/18 10:17:40;;;;;;;;;;;;;;;;;;1558020;28;83084;-87
2021/03/18 10:18:25;;;;;;;;;;;;;;;;;;1560803;28;85120;-87
2021/03/18 10:19:10;;;;;;;;;;;;;;;;;;1557413;28;86246;-88
2021/03/18 10:19:55;;;;;;;;;;;;;;;;;;1553552;28;83614;-88
2021/03/18 10:20:40;;;;;;;;;;;;;;;;;;1557371;28;85220;-87
2021/03/18 10:21:26;;;;;;;;;;;;;;;;;;1561460;28;84686;-88
2021/03/18 10:22:11;;;;;;;;;;;;;;;;;;1553180;28;85107;-89
2021/03/18 10:23:06;;;;;;;;;;;;;;;;;;1557560;28;84731;-93
2021/03/18 10:24:09;;;;;;;;;;;;;;;;;;1558583;28;84116;-92
2021/03/18 10:24:54;;;;;;;;;;;;;;;;;;1545911;28;84030;-90
2021/03/18 10:25:39;;;;;;;;;;;;;;;;;;1555650;28;85958;-89
2021/03/18 10:26:27;;;;;;;;;;;;;;;;;;1553368;28;86564;-91
2021/03/18 10:27:14;;;;;;;;;;;;;;;;;;1555210;28;84980;-90
2021/03/18 10:27:59;;;;;;;;;;;;;;;;;;1560038;28;84827;-89
2021/03/18 10:28:47;;;;;;;;;;;;;;;;;;1557645;28;84819;-90
2021/03/18 10:29:32;;;;;;;;;;;;;;;;;;1554910;28;84507;-88
2021/03/18 10:30:20;;;;;;;;;;;;;;;;;;1559781;28;86052;-89
2021/03/18 10:31:07;;;;;;;;;;;;;;;;;;1557286;28;83574;-89
2021/03/18 10:31:52;;;;;;;;;;;;;;;;;;1554468;28;85801;-89
2021/03/18 10:32:37;;;;;;;;;;;;;;;;;;1559569;28;85367;-91
2021/03/18 10:33:26;;;;;;;;;;;;;;;;;;1557379;28;84064;-89
2021/03/18 10:34:14;;;;;;;;;;;;;;;;;;1555065;28;84408;-90
2021/03/18 10:36:04;;;;;;;;;;;;;;;;;;1554338;28;84046;-91
2021/03/18 10:36:55;;;;;;;;;;;;;;;;;;1552695;28;83802;-90
2021/03/18 10:37:42;;;;;;;;;;;;;;;;;;1557302;28;83559;-91
2021/03/18 10:38:36;;;;;;;;;;;;;;;;;;1557510;28;83347;-89
2021/03/18 10:39:24;;;;;;;;;;;;;;;;;;1547778;28;85990;-90
2021/03/18 10:40:12;;;;;;;;;;;;;;;;;;1557566;28;84660;-89
2021/03/18 10:40:57;;;;;;;;;;;;;;;;;;1554198;28;84137;-88
2021/03/18 10:41:42;;;;;;;;;;;;;;;;;;1555688;28;85192;-88
2021/03/18 10:42:27;;;;;;;;;;;;;;;;;;1559590;28;86441;-88
2021/03/18 10:43:12;;;;;;;;;;;;;;;;;;1559078;28;84029;-90
2021/03/18 10:44:00;;;;;;;;;;;;;;;;;;1556962;28;85992;-88
2021/03/18 10:44:47;;;;;;;;;;;;;;;;;;1560963;28;85291;-88
2021/03/18 10:45:32;;;;;;;;;;;;;;;;;;1559037;28;84079;-89
2021/03/18 10:46:20;;;;;;;;;;;;;;;;;;1556894;28;84337;-89
2021/03/18 10:47:05;;;;;;;;;;;;;;;;;;1560935;28;84024;-88
2021/03/18 10:47:50;;;;;;;;;;;;;;;;;;1564632;28;86835;-89
2021/03/18 10:48:36;;;;;;;;;;;;;;;;;;1562950;28;84381;-89
2021/03/18 10:49:21;;;;;;;;;;;;;;;;;;1566421;28;85705;-88
2021/03/18 10:50:08;;;;;;;;;;;;;;;;;;1563468;28;85195;-90
2021/03/18 10:50:53;;;;;;;;;;;;;;;;;;1559268;28;86077;-89
2021/03/18 10:51:38;;;;;;;;;;;;;;;;;;1557814;28;85477;-88
2021/03/18 10:52:24;;;;;;;;;;;;;;;;;;1558457;28;85526;-90
2021/03/18 10:53:11;;;;;;;;;;;;;;;;;;1561539;28;84241;-89
2021/03/18 10:54:02;;;;;;;;;;;;;;;;;;1561299;28;84523;-89
2021/03/18 10:54:48;;;;;;;;;;;;;;;;;;1555214;28;84005;-88
2021/03/18 10:55:33;;;;;;;;;;;;;;;;;;1551398;28;83247;-87
2021/03/18 10:56:18;;;;;;;;;;;;;;;;;;1559168;28;84864;-87
2021/03/18 10:57:03;;;;;;;;;;;;;;;;;;1563141;28;85495;-89
2021/03/18 10:57:48;;;;;;;;;;;;;;;;;;1555379;28;85697;-87
2021/03/18 10:58:33;;;;;;;;;;;;;;;;;;1557093;28;86840;-88
2021/03/18 10:59:19;;;;;;;;;;;;;;;;;;1559169;28;86765;-87
2021/03/18 11:00:04;;;;;;;;;;;;;;;;;;1555182;28;86885;-89
2021/03/18 11:00:51;;;;;;;;;;;;;;;;;;1557273;28;84846;-89
2021/03/18 11:01:36;;;;;;;;;;;;;;;;;;1559550;28;84561;-87
2021/03/18 11:02:21;;;;;;;;;;;;;;;;;;1557638;28;85309;-88
2021/03/18 11:03:06;;;;;;;;;;;;;;;;;;1557091;28;83630;-88
2021/03/18 11:03:52;;;;;;;;;;;;;;;;;;1559084;28;83535;-87
2021/03/18 11:04:37;;;;;;;;;;;;;;;;;;1555275;28;84335;-88
2021/03/18 11:05:24;;;;;;;;;;;;;;;;;;1557677;28;84690;-88
2021/03/18 11:06:09;;;;;;;;;;;;;;;;;;1560108;28;83008;-89
2021/03/18 11:06:54;;;;;;;;;;;;;;;;;;1554698;28;84667;-88
2021/03/18 11:07:39;;;;;;;;;;;;;;;;;;1557227;28;83426;-88
2021/03/18 11:08:25;;;;;;;;;;;;;;;;;;1559147;28;82957;-86
2021/03/18 11:09:10;;;;;;;;;;;;;;;;;;1555139;28;84777;-87
2021/03/18 11:09:55;;;;;;;;;;;;;;;;;;1557153;28;83507;-88
2021/03/18 11:10:40;;;;;;;;;;;;;;;;;;1559319;28;84955;-88
2021/03/18 11:11:25;;;;;;;;;;;;;;;;;;1554868;28;83577;-88
2021/03/18 11:12:10;;;;;;;;;;;;;;;;;;1556986;28;84956;-86
2021/03/18 11:12:55;;;;;;;;;;;;;;;;;;1559124;28;83487;-89
2021/03/18 11:13:42;;;;;;;;;;;;;;;;;;1555366;28;83159;-88
2021/03/18 11:14:28;;;;;;;;;;;;;;;;;;1546841;28;84179;-88
2021/03/18 11:15:13;;;;;;;;;;;;;;;;;;1553125;28;83476;-90
2021/03/18 11:15:58;;;;;;;;;;;;;;;;;;1553112;28;83593;-89
2021/03/18 11:16:43;;;;;;;;;;;;;;;;;;1555153;28;84794;-90
2021/03/18 11:17:29;;;;;;;;;;;;;;;;;;1546693;28;83466;-88
2021/03/18 11:18:14;;;;;;;;;;;;;;;;;;1550927;28;83618;-89
2021/03/18 11:18:59;;;;;;;;;;;;;;;;;;1550610;28;84423;-88
2021/03/18 11:19:44;;;;;;;;;;;;;;;;;;1559010;28;84538;-89
2021/03/18 11:20:29;;;;;;;;;;;;;;;;;;1551989;28;84969;-88
2021/03/18 11:21:14;;;;;;;;;;;;;;;;;;1548946;28;84624;-89
2021/03/18 11:21:59;;;;;;;;;;;;;;;;;;1544749;28;83607;-89
2021/03/18 11:22:44;;;;;;;;;;;;;;;;;;1557623;28;83552;-89
2021/03/18 11:23:30;;;;;;;;;;;;;;;;;;1560965;28;83797;-88
2021/03/18 11:24:15;;;;;;;;;;;;;;;;;;1555560;28;84280;-89
2021/03/18 11:25:03;;;;;;;;;;;;;;;;;;1558972;28;83369;-89
2021/03/18 11:25:48;;;;;;;;;;;;;;;;;;1557104;28;85364;-89
2021/03/18 11:26:33;;;;;;;;;;;;;;;;;;1554407;28;85008;-87
2021/03/18 11:27:18;;;;;;;;;;;;;;;;;;1558925;28;86094;-88
2021/03/18 11:28:03;;;;;;;;;;;;;;;;;;1557120;28;83717;-87
2021/03/18 11:28:51;;;;;;;;;;;;;;;;;;1555308;28;83894;-88
2021/03/18 11:29:36;;;;;;;;;;;;;;;;;;1559555;28;86439;-88
2021/03/18 11:30:21;;;;;;;;;;;;;;;;;;1557080;28;84956;-88
2021/03/18 11:31:10;;;;;;;;;;;;;;;;;;1555150;28;85006;-88
2021/03/18 11:31:55;;;;;;;;;;;;;;;;;;1559322;28;84833;-89
2021/03/18 11:32:40;;;;;;;;;;;;;;;;;;1557130;28;84925;-88
2021/03/18 11:33:25;;;;;;;;;;;;;;;;;;1555218;28;84938;-87
2021/03/18 11:34:10;;;;;;;;;;;;;;;;;;1558932;28;84516;-88
2021/03/18 11:34:55;;;;;;;;;;;;;;;;;;1555889;28;83514;-89
2021/03/18 11:35:40;;;;;;;;;;;;;;;;;;1548036;28;84870;-88
2021/03/18 11:36:25;;;;;;;;;;;;;;;;;;1552430;28;83691;-89
2021/03/18 11:37:11;;;;;;;;;;;;;;;;;;1551154;28;83361;-89
2021/03/18 11:37:56;;;;;;;;;;;;;;;;;;1549152;28;86366;-90
2021/03/18 11:38:41;;;;;;;;;;;;;;;;;;1552835;28;84707;-88
2021/03/18 11:39:26;;;;;;;;;;;;;;;;;;1550840;28;85118;-89
2021/03/18 11:40:11;;;;;;;;;;;;;;;;;;1548592;28;85777;-89
2021/03/18 11:40:56;;;;;;;;;;;;;;;;;;1552380;28;83653;-86
2021/03/18 11:41:41;;;;;;;;;;;;;;;;;;1550692;28;85807;-89
2021/03/18 11:42:27;;;;;;;;;;;;;;;;;;1548772;28;84719;-89
2021/03/18 11:43:12;;;;;;;;;;;;;;;;;;1552694;28;85947;-88
2021/03/18 11:43:57;;;;;;;;;;;;;;;;;;1550707;28;84846;-89
2021/03/18 11:44:42;;;;;;;;;;;;;;;;;;1549027;28;85738;-88
2021/03/18 11:45:27;;;;;;;;;;;;;;;;;;1559448;28;84852;-90
2021/03/18 11:46:12;;;;;;;;;;;;;;;;;;1556974;28;84280;-88
2021/03/18 11:46:57;;;;;;;;;;;;;;;;;;1555141;28;85491;-89
2021/03/18 11:47:43;;;;;;;;;;;;;;;;;;1558975;28;86796;-88
2021/03/18 11:48:28;;;;;;;;;;;;;;;;;;1556950;28;85652;-89
2021/03/18 11:49:13;;;;;;;;;;;;;;;;;;1555011;28;85695;-90
2021/03/18 11:49:58;;;;;;;;;;;;;;;;;;1558946;28;86029;-89
2021/03/18 11:50:43;;;;;;;;;;;;;;;;;;1557103;28;85512;-87
2021/03/18 11:51:28;;;;;;;;;;;;;;;;;;1554865;28;85299;-88
2021/03/18 11:52:16;;;;;;;;;;;;;;;;;;1558770;28;85800;-91
2021/03/18 11:53:03;;;;;;;;;;;;;;;;;;1556929;28;86174;-89
2021/03/18 11:53:54;;;;;;;;;;;;;;;;;;1554488;28;85771;-90
2021/03/18 11:54:42;;;;;;;;;;;;;;;;;;1560244;28;85189;-89
2021/03/18 11:55:27;;;;;;;;;;;;;;;;;;1557001;28;84230;-88
2021/03/18 11:56:15;;;;;;;;;;;;;;;;;;1555175;28;86556;-88
2021/03/18 11:57:00;;;;;;;;;;;;;;;;;;1547600;28;85906;-88
2021/03/18 11:57:53;;;;;;;;;;;;;;;;;;1544638;28;86811;-90
2021/03/18 11:58:38;;;;;;;;;;;;;;;;;;1544703;28;85125;-91
2021/03/18 11:59:25;;;;;;;;;;;;;;;;;;1549431;28;85413;-89
2021/03/18 12:00:11;;;;;;;;;;;;;;;;;;1556944;28;86561;-89
2021/03/18 12:00:56;;;;;;;;;;;;;;;;;;1556612;28;85306;-85
2021/03/18 12:01:41;;;;;;;;;;;;;;;;;;1554923;28;84050;-88
2021/03/18 12:02:26;;;;;;;;;;;;;;;;;;1550488;28;85073;-89
2021/03/18 12:03:12;;;;;;;;;;;;;;;;;;1550622;28;83901;-87
2021/03/18 12:03:57;;;;;;;;;;;;;;;;;;1544574;28;86046;-88
2021/03/18 12:04:43;;;;;;;;;;;;;;;;;;1544273;28;86863;-88
2021/03/18 12:05:28;;;;;;;;;;;;;;;;;;1546434;28;85312;-87
2021/03/18 12:06:14;;;;;;;;;;;;;;;;;;1548494;28;85999;-86
2021/03/18 12:06:59;;;;;;;;;;;;;;;;;;1553265;28;84932;-88
2021/03/18 12:07:44;;;;;;;;;;;;;;;;;;1552779;28;83345;-87
2021/03/18 12:08:29;;;;;;;;;;;;;;;;;;1554711;28;83543;-87
2021/03/18 12:09:14;;;;;;;;;;;;;;;;;;1556728;28;83530;-86
2021/03/18 12:09:59;;;;;;;;;;;;;;;;;;1556721;28;84439;-86
2021/03/18 12:10:44;;;;;;;;;;;;;;;;;;1554765;28;84349;-87
2021/03/18 12:11:29;;;;;;;;;;;;;;;;;;1556724;28;84249;-88
2021/03/18 12:12:15;;;;;;;;;;;;;;;;;;1557509;28;83666;-86
2021/03/18 12:13:00;;;;;;;;;;;;;;;;;;1554753;28;85432;-88
2021/03/18 12:13:45;;;;;;;;;;;;;;;;;;1556601;28;83795;-87
2021/03/18 12:14:30;;;;;;;;;;;;;;;;;;1555097;28;83568;-87
2021/03/18 12:15:18;;;;;;;;;;;;;;;;;;1551482;28;83357;-88
2021/03/18 12:16:03;;;;;;;;;;;;;;;;;;1544531;28;84465;-88
2021/03/18 12:16:48;;;;;;;;;;;;;;;;;;1546882;28;82975;-87
2021/03/18 12:17:33;;;;;;;;;;;;;;;;;;1550453;28;84548;-88
2021/03/18 12:18:19;;;;;;;;;;;;;;;;;;1560919;28;83519;-89
2021/03/18 12:19:04;;;;;;;;;;;;;;;;;;1558658;28;84388;-88
2021/03/18 12:19:49;;;;;;;;;;;;;;;;;;1551479;28;84627;-88
2021/03/18 12:20:34;;;;;;;;;;;;;;;;;;1544192;28;85687;-87
2021/03/18 12:21:19;;;;;;;;;;;;;;;;;;1546306;28;84924;-87
2021/03/18 12:22:04;;;;;;;;;;;;;;;;;;1550483;28;83627;-89
2021/03/18 12:22:49;;;;;;;;;;;;;;;;;;1556812;28;84566;-88
2021/03/18 12:23:35;;;;;;;;;;;;;;;;;;1556736;28;83768;-87
2021/03/18 12:24:20;;;;;;;;;;;;;;;;;;1548398;28;83337;-88
2021/03/18 12:25:05;;;;;;;;;;;;;;;;;;1550472;28;83489;-90
2021/03/18 12:25:50;;;;;;;;;;;;;;;;;;1552476;28;83698;-89
2021/03/18 12:26:35;;;;;;;;;;;;;;;;;;1548462;28;84599;-88
2021/03/18 12:27:20;;;;;;;;;;;;;;;;;;1550515;28;83694;-89
2021/03/18 12:28:06;;;;;;;;;;;;;;;;;;1552615;28;84789;-89
2021/03/18 12:28:51;;;;;;;;;;;;;;;;;;1551614;28;84802;-89
2021/03/18 12:29:36;;;;;;;;;;;;;;;;;;1555842;28;86019;-89
2021/03/18 12:30:22;;;;;;;;;;;;;;;;;;1555254;28;86112;-88
2021/03/18 12:31:07;;;;;;;;;;;;;;;;;;1548882;28;83568;-89
2021/03/18 12:31:52;;;;;;;;;;;;;;;;;;1550842;28;83841;-88
2021/03/18 12:32:37;;;;;;;;;;;;;;;;;;1552702;28;83784;-89
2021/03/18 12:33:22;;;;;;;;;;;;;;;;;;1549410;28;84713;-88
2021/03/18 12:34:07;;;;;;;;;;;;;;;;;;1551837;28;85465;-89
2021/03/18 12:34:52;;;;;;;;;;;;;;;;;;1556907;28;83846;-88
2021/03/18 12:35:37;;;;;;;;;;;;;;;;;;1555021;28;85751;-89
2021/03/18 12:36:23;;;;;;;;;;;;;;;;;;1556783;28;85741;-87
2021/03/18 12:37:08;;;;;;;;;;;;;;;;;;1556823;28;85317;-90
2021/03/18 12:37:53;;;;;;;;;;;;;;;;;;1555199;28;84798;-89
2021/03/18 12:38:38;;;;;;;;;;;;;;;;;;1556907;28;86197;-89
2021/03/18 12:39:24;;;;;;;;;;;;;;;;;;1556933;28;84767;-89
2021/03/18 12:40:09;;;;;;;;;;;;;;;;;;1548701;28;85039;-89
2021/03/18 12:40:54;;;;;;;;;;;;;;;;;;1550871;28;84910;-90
2021/03/18 12:41:48;;;;;;;;;;;;;;;;;;1552629;28;86273;-91
2021/03/18 12:42:33;;;;;;;;;;;;;;;;;;1547433;28;84008;-91
2021/03/18 12:43:18;;;;;;;;;;;;;;;;;;1550890;28;85888;-89
2021/03/18 12:44:03;;;;;;;;;;;;;;;;;;1552687;28;85098;-90
2021/03/18 12:44:51;;;;;;;;;;;;;;;;;;1548551;28;85275;-91
2021/03/18 12:45:38;;;;;;;;;;;;;;;;;;1550659;28;86542;-91
2021/03/18 12:46:23;;;;;;;;;;;;;;;;;;1553367;28;84265;-90
2021/03/18 12:47:11;;;;;;;;;;;;;;;;;;1548059;28;85223;-90
2021/03/18 12:47:58;;;;;;;;;;;;;;;;;;1550759;28;83539;-90
2021/03/18 12:48:46;;;;;;;;;;;;;;;;;;1553258;28;84727;-91
2021/03/18 12:49:31;;;;;;;;;;;;;;;;;;1548177;28;86170;-91
2021/03/18 12:50:18;;;;;;;;;;;;;;;;;;1553247;28;84771;-91
2021/03/18 12:51:03;;;;;;;;;;;;;;;;;;1552792;28;85875;-90
2021/03/18 12:51:49;;;;;;;;;;;;;;;;;;1548880;28;85360;-90
2021/03/18 12:52:36;;;;;;;;;;;;;;;;;;1558599;28;84101;-90
2021/03/18 12:53:21;;;;;;;;;;;;;;;;;;1558837;28;84425;-89
2021/03/18 12:54:06;;;;;;;;;;;;;;;;;;1554767;28;85528;-92
2021/03/18 12:55:00;;;;;;;;;;;;;;;;;;1556848;28;83893;-91
2021/03/18 12:56:03;;;;;;;;;;;;;;;;;;1554272;28;85759;-91
2021/03/18 12:56:48;;;;;;;;;;;;;;;;;;1551076;28;85482;-91
2021/03/18 12:57:33;;;;;;;;;;;;;;;;;;1554899;28;85693;-92
2021/03/18 12:58:26;;;;;;;;;;;;;;;;;;1550525;28;86249;-92
2021/03/18 12:59:11;;;;;;;;;;;;;;;;;;1557013;28;84291;-90
2021/03/18 12:59:56;;;;;;;;;;;;;;;;;;1559773;28;85417;-90
2021/03/18 13:00:44;;;;;;;;;;;;;;;;;;1554707;28;84990;-92
2021/03/18 13:01:31;;;;;;;;;;;;;;;;;;1556950;28;85545;-91
2021/03/18 13:02:25;;;;;;;;;;;;;;;;;;1559563;28;85297;-90
2021/03/18 13:03:10;;;;;;;;;;;;;;;;;;1552849;28;85538;-89
2021/03/18 13:03:56;;;;;;;;;;;;;;;;;;1546966;28;85571;-91
2021/03/18 13:04:41;;;;;;;;;;;;;;;;;;1546437;28;84570;-92
2021/03/18 13:05:26;;;;;;;;;;;;;;;;;;1550714;28;85057;-91
2021/03/18 13:06:11;;;;;;;;;;;;;;;;;;1552387;28;85477;-89
2021/03/18 13:06:56;;;;;;;;;;;;;;;;;;1550572;28;86357;-90
2021/03/18 13:07:42;;;;;;;;;;;;;;;;;;1550295;28;86813;-88
2021/03/18 13:08:27;;;;;;;;;;;;;;;;;;1558690;28;85550;-89
2021/03/18 13:09:12;;;;;;;;;;;;;;;;;;1556789;28;86072;-85
2021/03/18 13:09:57;;;;;;;;;;;;;;;;;;1555393;28;83786;-88
2021/03/18 13:10:42;;;;;;;;;;;;;;;;;;1553489;28;85788;-89
2021/03/18 13:11:27;;;;;;;;;;;;;;;;;;1552584;28;86139;-89
2021/03/18 13:12:15;;;;;;;;;;;;;;;;;;1548215;28;85135;-89
2021/03/18 13:13:00;;;;;;;;;;;;;;;;;;1561014;28;83334;-90
2021/03/18 13:13:45;;;;;;;;;;;;;;;;;;1560655;28;83278;-89
2021/03/18 13:14:31;;;;;;;;;;;;;;;;;;1555421;28;84467;-90
2021/03/18 13:15:19;;;;;;;;;;;;;;;;;;1550789;28;83223;-89
2021/03/18 13:16:04;;;;;;;;;;;;;;;;;;1559526;28;83758;-90
2021/03/18 13:16:52;;;;;;;;;;;;;;;;;;1557690;28;83609;-91
2021/03/18 13:17:37;;;;;;;;;;;;;;;;;;1555060;28;84137;-89
2021/03/18 13:18:24;;;;;;;;;;;;;;;;;;1554734;28;83260;-91
2021/03/18 13:19:10;;;;;;;;;;;;;;;;;;1550072;28;83101;-90
2021/03/18 13:19:57;;;;;;;;;;;;;;;;;;1551780;28;83272;-89
2021/03/18 13:20:42;;;;;;;;;;;;;;;;;;1553676;28;84087;-90
2021/03/18 13:21:27;;;;;;;;;;;;;;;;;;1549020;28;83731;-89
2021/03/18 13:22:12;;;;;;;;;;;;;;;;;;1550745;28;83745;-88
2021/03/18 13:22:58;;;;;;;;;;;;;;;;;;1553680;28;83609;-89
2021/03/18 13:23:43;;;;;;;;;;;;;;;;;;1549320;28;84345;-88
2021/03/18 13:24:28;;;;;;;;;;;;;;;;;;1550877;28;83427;-89
2021/03/18 13:25:13;;;;;;;;;;;;;;;;;;1552886;28;84475;-88
2021/03/18 13:25:58;;;;;;;;;;;;;;;;;;1552977;28;84883;-88
2021/03/18 13:26:46;;;;;;;;;;;;;;;;;;1547004;28;83105;-87
2021/03/18 13:27:31;;;;;;;;;;;;;;;;;;1548863;28;83565;-90
2021/03/18 13:28:21;;;;;;;;;;;;;;;;;;1546997;28;83706;-90
2021/03/18 13:29:06;;;;;;;;;;;;;;;;;;1545012;28;83603;-89
2021/03/18 13:29:52;;;;;;;;;;;;;;;;;;1547398;28;84665;-89
2021/03/18 13:30:39;;;;;;;;;;;;;;;;;;1553005;28;83600;-89
2021/03/18 13:31:24;;;;;;;;;;;;;;;;;;1551770;28;84256;-88
2021/03/18 13:32:10;;;;;;;;;;;;;;;;;;1551690;28;83025;-88
2021/03/18 13:32:55;;;;;;;;;;;;;;;;;;1560704;28;83530;-90
2021/03/18 13:33:40;;;;;;;;;;;;;;;;;;1557823;28;83950;-89
2021/03/18 13:34:25;;;;;;;;;;;;;;;;;;1558595;28;83328;-89
2021/03/18 13:35:11;;;;;;;;;;;;;;;;;;1559608;28;84760;-90
2021/03/18 13:35:56;;;;;;;;;;;;;;;;;;1557461;28;85550;-90
2021/03/18 13:36:43;;;;;;;;;;;;;;;;;;1554874;28;83723;-91
2021/03/18 13:37:28;;;;;;;;;;;;;;;;;;1559429;28;84119;-89
2021/03/18 13:38:13;;;;;;;;;;;;;;;;;;1557255;28;86720;-90
2021/03/18 13:38:59;;;;;;;;;;;;;;;;;;1555203;28;84890;-90
2021/03/18 13:39:47;;;;;;;;;;;;;;;;;;1559422;28;86314;-90
2021/03/18 13:40:32;;;;;;;;;;;;;;;;;;1557160;28;85348;-90
2021/03/18 13:41:20;;;;;;;;;;;;;;;;;;1554097;28;84252;-89
2021/03/18 13:42:05;;;;;;;;;;;;;;;;;;1559018;28;85212;-90
2021/03/18 13:42:50;;;;;;;;;;;;;;;;;;1556576;28;85355;-90
2021/03/18 13:43:38;;;;;;;;;;;;;;;;;;1554510;28;84730;-91
2021/03/18 13:44:23;;;;;;;;;;;;;;;;;;1558414;28;84469;-89
2021/03/18 13:45:08;;;;;;;;;;;;;;;;;;1556675;28;84577;-89
2021/03/18 13:45:54;;;;;;;;;;;;;;;;;;1554617;28;85026;-88
2021/03/18 13:46:44;;;;;;;;;;;;;;;;;;1558360;28;83757;-90
2021/03/18 13:47:29;;;;;;;;;;;;;;;;;;1556340;28;84602;-91
2021/03/18 13:48:14;;;;;;;;;;;;;;;;;;1553736;28;84565;-88
2021/03/18 13:48:59;;;;;;;;;;;;;;;;;;1552320;28;85839;-90
2021/03/18 13:49:45;;;;;;;;;;;;;;;;;;1550338;28;85020;-90
2021/03/18 13:50:30;;;;;;;;;;;;;;;;;;1550197;28;84066;-89
2021/03/18 13:51:15;;;;;;;;;;;;;;;;;;1558465;28;85256;-89
2021/03/18 13:52:09;;;;;;;;;;;;;;;;;;1556350;28;85309;-89
2021/03/18 13:52:54;;;;;;;;;;;;;;;;;;1553418;28;84873;-88
2021/03/18 13:53:41;;;;;;;;;;;;;;;;;;1559596;28;85852;-90
2021/03/18 13:54:27;;;;;;;;;;;;;;;;;;1556448;28;85485;-89
2021/03/18 13:55:12;;;;;;;;;;;;;;;;;;1554269;28;84776;-88
2021/03/18 13:55:57;;;;;;;;;;;;;;;;;;1561385;28;85042;-89
2021/03/18 13:56:44;;;;;;;;;;;;;;;;;;1556918;28;84334;-90
2021/03/18 13:57:32;;;;;;;;;;;;;;;;;;1554436;28;85757;-89
2021/03/18 13:58:17;;;;;;;;;;;;;;;;;;1558901;28;86141;-88
2021/03/18 13:59:02;;;;;;;;;;;;;;;;;;1556551;28;86655;-88
2021/03/18 13:59:47;;;;;;;;;;;;;;;;;;1555382;28;84992;-90
2021/03/18 14:00:32;;;;;;;;;;;;;;;;;;1559408;28;84371;-90
2021/03/18 14:01:17;;;;;;;;;;;;;;;;;;1557346;28;86262;-89
2021/03/18 14:02:02;;;;;;;;;;;;;;;;;;1555567;28;86754;-90
2021/03/18 14:02:48;;;;;;;;;;;;;;;;;;1559398;28;85403;-90
2021/03/18 14:03:35;;;;;;;;;;;;;;;;;;1557432;28;84249;-87
2021/03/18 14:04:20;;;;;;;;;;;;;;;;;;1555137;28;85473;-88
2021/03/18 14:05:06;;;;;;;;;;;;;;;;;;1559949;28;85481;-89
2021/03/18 14:05:51;;;;;;;;;;;;;;;;;;1557133;28;83865;-88
2021/03/18 14:06:36;;;;;;;;;;;;;;;;;;1555496;28;85621;-89
2021/03/18 14:07:21;;;;;;;;;;;;;;;;;;1559376;28;85460;-89
2021/03/18 14:08:06;;;;;;;;;;;;;;;;;;1557507;28;85405;-89
2021/03/18 14:08:51;;;;;;;;;;;;;;;;;;1555381;28;84139;-90
2021/03/18 14:09:36;;;;;;;;;;;;;;;;;;1559625;28;86308;-92
2021/03/18 14:10:30;;;;;;;;;;;;;;;;;;1557318;28;84030;-88
2021/03/18 14:11:15;;;;;;;;;;;;;;;;;;1554159;28;84508;-88
2021/03/18 14:12:00;;;;;;;;;;;;;;;;;;1560326;28;85052;-90
2021/03/18 14:12:45;;;;;;;;;;;;;;;;;;1557300;28;86649;-89
2021/03/18 14:13:30;;;;;;;;;;;;;;;;;;1555447;28;83925;-90
2021/03/18 14:14:15;;;;;;;;;;;;;;;;;;1559218;28;85208;-90
2021/03/18 14:15:01;;;;;;;;;;;;;;;;;;1557351;28;86681;-88
2021/03/18 14:15:48;;;;;;;;;;;;;;;;;;1553042;28;84078;-89
2021/03/18 14:16:33;;;;;;;;;;;;;;;;;;1553264;28;84108;-90
2021/03/18 14:17:18;;;;;;;;;;;;;;;;;;1551122;28;85274;-89
2021/03/18 14:18:03;;;;;;;;;;;;;;;;;;1552099;28;85401;-88
2021/03/18 14:18:48;;;;;;;;;;;;;;;;;;1553143;28;83186;-90
2021/03/18 14:19:36;;;;;;;;;;;;;;;;;;1551024;28;83603;-89
2021/03/18 14:20:23;;;;;;;;;;;;;;;;;;1548629;28;83610;-87
2021/03/18 14:21:08;;;;;;;;;;;;;;;;;;1553858;28;83492;-88
2021/03/18 14:21:53;;;;;;;;;;;;;;;;;;1551037;28;84222;-88
2021/03/18 14:22:41;;;;;;;;;;;;;;;;;;1548973;28;85009;-89
2021/03/18 14:23:26;;;;;;;;;;;;;;;;;;1553270;28;85676;-88
2021/03/18 14:24:11;;;;;;;;;;;;;;;;;;1551110;28;83217;-90
2021/03/18 14:24:56;;;;;;;;;;;;;;;;;;1549663;28;83357;-89
2021/03/18 14:25:42;;;;;;;;;;;;;;;;;;1553309;28;83624;-88
2021/03/18 14:26:27;;;;;;;;;;;;;;;;;;1550837;28;83431;-90
2021/03/18 14:27:12;;;;;;;;;;;;;;;;;;1549204;28;83273;-88